sensor_id;sensor_type;location;lat;lon;timestamp;temperature;humidity
17178;DHT22;8704;52.006;4.374;2023-03-20T00:00:47;7.60;1.00
17178;DHT22;8704;52.006;4.374;2023-03-20T00:03:18;8.50;1.00
17178;DHT22;8704;52.006;4.374;2023-03-20T00:05:46;7.60;1.00
17178;DHT22;8704;52.006;4.374;2023-03-20T00:08:14;7.60;1.00
17178;DHT22;8704;52.006;4.374;2023-03-20T00:10:45;7.50;1.00
17178;DHT22;8704;52.006;4.374;2023-03-20T00:13:17;7.50;1.00
17178;DHT22;8704;52.006;4.374;2023-03-20T00:15:46;7.40;1.00
17178;DHT22;8704;52.006;4.374;2023-03-20T00:18:16;7.40;1.00
17178;DHT22;8704;52.006;4.374;2023-03-20T00:20:46;7.40;1.00
17178;DHT22;8704;52.006;4.374;2023-03-20T00:23:15;7.40;1.00
17178;DHT22;8704;52.006;4.374;2023-03-20T00:25:44;8.40;1.00
17178;DHT22;8704;52.006;4.374;2023-03-20T00:28:29;7.30;1.00
17178;DHT22;8704;52.006;4.374;2023-03-20T00:30:59;7.30;1.00
17178;DHT22;8704;52.006;4.374;2023-03-20T00:33:27;7.30;1.00
17178;DHT22;8704;52.006;4.374;2023-03-20T00:35:58;7.70;1.00
17178;DHT22;8704;52.006;4.374;2023-03-20T00:38:26;7.30;1.00
17178;DHT22;8704;52.006;4.374;2023-03-20T00:40:54;7.20;1.00
17178;DHT22;8704;52.006;4.374;2023-03-20T00:43:22;8.10;1.00
17178;DHT22;8704;52.006;4.374;2023-03-20T00:45:50;8.20;1.00
17178;DHT22;8704;52.006;4.374;2023-03-20T00:48:18;8.10;1.00
17178;DHT22;8704;52.006;4.374;2023-03-20T00:50:47;7.20;1.00
17178;DHT22;8704;52.006;4.374;2023-03-20T00:53:16;8.00;1.00
17178;DHT22;8704;52.006;4.374;2023-03-20T00:55:44;7.20;1.00
17178;DHT22;8704;52.006;4.374;2023-03-20T00:58:12;7.90;1.00
17178;DHT22;8704;52.006;4.374;2023-03-20T01:00:41;8.40;1.00
17178;DHT22;8704;52.006;4.374;2023-03-20T01:03:13;7.20;1.00
17178;DHT22;8704;52.006;4.374;2023-03-20T01:05:43;7.50;1.00
17178;DHT22;8704;52.006;4.374;2023-03-20T01:08:13;7.10;1.00
17178;DHT22;8704;52.006;4.374;2023-03-20T01:10:44;7.10;1.00
17178;DHT22;8704;52.006;4.374;2023-03-20T01:13:20;7.10;1.00
17178;DHT22;8704;52.006;4.374;2023-03-20T01:15:50;7.00;1.00
17178;DHT22;8704;52.006;4.374;2023-03-20T01:18:21;7.00;1.00
17178;DHT22;8704;52.006;4.374;2023-03-20T01:20:49;7.00;1.00
17178;DHT22;8704;52.006;4.374;2023-03-20T01:23:19;7.00;1.00
17178;DHT22;8704;52.006;4.374;2023-03-20T01:25:50;7.00;1.00
17178;DHT22;8704;52.006;4.374;2023-03-20T01:28:20;7.00;1.00
17178;DHT22;8704;52.006;4.374;2023-03-20T01:30:49;6.90;1.00
17178;DHT22;8704;52.006;4.374;2023-03-20T01:33:19;7.00;1.00
17178;DHT22;8704;52.006;4.374;2023-03-20T01:35:48;7.00;1.00
17178;DHT22;8704;52.006;4.374;2023-03-20T01:38:19;6.90;1.00
17178;DHT22;8704;52.006;4.374;2023-03-20T01:40:53;7.00;1.00
17178;DHT22;8704;52.006;4.374;2023-03-20T01:43:24;7.00;1.00
17178;DHT22;8704;52.006;4.374;2023-03-20T01:45:58;7.00;1.00
17178;DHT22;8704;52.006;4.374;2023-03-20T01:48:35;7.00;1.00
17178;DHT22;8704;52.006;4.374;2023-03-20T01:51:24;7.00;1.00
17178;DHT22;8704;52.006;4.374;2023-03-20T01:53:53;7.00;1.00
17178;DHT22;8704;52.006;4.374;2023-03-20T01:56:27;7.10;1.00
17178;DHT22;8704;52.006;4.374;2023-03-20T01:58:59;7.00;1.00
17178;DHT22;8704;52.006;4.374;2023-03-20T02:01:29;7.00;1.00
17178;DHT22;8704;52.006;4.374;2023-03-20T02:03:58;7.10;1.00
17178;DHT22;8704;52.006;4.374;2023-03-20T02:06:27;7.00;1.00
17178;DHT22;8704;52.006;4.374;2023-03-20T02:08:55;7.00;1.00
17178;DHT22;8704;52.006;4.374;2023-03-20T02:11:25;7.00;1.00
17178;DHT22;8704;52.006;4.374;2023-03-20T02:13:57;7.00;1.00
17178;DHT22;8704;52.006;4.374;2023-03-20T02:16:26;7.60;1.00
17178;DHT22;8704;52.006;4.374;2023-03-20T02:18:55;7.00;1.00
17178;DHT22;8704;52.006;4.374;2023-03-20T02:21:51;7.30;1.00
17178;DHT22;8704;52.006;4.374;2023-03-20T02:27:31;6.90;1.00
17178;DHT22;8704;52.006;4.374;2023-03-20T02:30:40;6.90;1.00
17178;DHT22;8704;52.006;4.374;2023-03-20T02:33:36;6.90;1.00
17178;DHT22;8704;52.006;4.374;2023-03-20T02:36:47;6.80;1.00
17178;DHT22;8704;52.006;4.374;2023-03-20T02:39:35;6.80;1.00
17178;DHT22;8704;52.006;4.374;2023-03-20T02:42:12;6.80;1.00
17178;DHT22;8704;52.006;4.374;2023-03-20T02:44:50;6.80;1.00
17178;DHT22;8704;52.006;4.374;2023-03-20T02:47:23;6.80;1.00
17178;DHT22;8704;52.006;4.374;2023-03-20T02:49:56;6.80;1.00
17178;DHT22;8704;52.006;4.374;2023-03-20T02:52:35;6.80;1.00
17178;DHT22;8704;52.006;4.374;2023-03-20T02:55:14;6.80;1.00
17178;DHT22;8704;52.006;4.374;2023-03-20T02:57:53;6.80;1.00
17178;DHT22;8704;52.006;4.374;2023-03-20T03:00:27;6.80;1.00
17178;DHT22;8704;52.006;4.374;2023-03-20T03:03:05;6.90;1.00
17178;DHT22;8704;52.006;4.374;2023-03-20T03:05:37;6.80;1.00
17178;DHT22;8704;52.006;4.374;2023-03-20T03:08:08;6.80;1.00
17178;DHT22;8704;52.006;4.374;2023-03-20T03:10:42;6.80;1.00
17178;DHT22;8704;52.006;4.374;2023-03-20T03:13:14;6.80;1.00
17178;DHT22;8704;52.006;4.374;2023-03-20T03:15:43;6.80;1.00
17178;DHT22;8704;52.006;4.374;2023-03-20T03:18:14;6.80;1.00
17178;DHT22;8704;52.006;4.374;2023-03-20T03:20:45;6.80;1.00
17178;DHT22;8704;52.006;4.374;2023-03-20T03:23:27;6.80;1.00
17178;DHT22;8704;52.006;4.374;2023-03-20T03:25:58;6.80;1.00
17178;DHT22;8704;52.006;4.374;2023-03-20T03:28:30;6.80;1.00
17178;DHT22;8704;52.006;4.374;2023-03-20T03:31:04;6.80;1.00
17178;DHT22;8704;52.006;4.374;2023-03-20T03:33:37;6.80;1.00
17178;DHT22;8704;52.006;4.374;2023-03-20T03:36:11;6.80;1.00
17178;DHT22;8704;52.006;4.374;2023-03-20T03:38:44;6.80;1.00
17178;DHT22;8704;52.006;4.374;2023-03-20T03:41:23;6.80;1.00
17178;DHT22;8704;52.006;4.374;2023-03-20T03:43:59;7.10;1.00
17178;DHT22;8704;52.006;4.374;2023-03-20T03:46:34;6.80;1.00
17178;DHT22;8704;52.006;4.374;2023-03-20T03:49:07;6.80;1.00
17178;DHT22;8704;52.006;4.374;2023-03-20T03:51:40;6.80;1.00
17178;DHT22;8704;52.006;4.374;2023-03-20T03:54:11;6.80;1.00
17178;DHT22;8704;52.006;4.374;2023-03-20T03:56:43;7.00;1.00
17178;DHT22;8704;52.006;4.374;2023-03-20T03:59:19;6.80;1.00
17178;DHT22;8704;52.006;4.374;2023-03-20T04:01:49;6.80;1.00
17178;DHT22;8704;52.006;4.374;2023-03-20T04:04:19;6.80;1.00
17178;DHT22;8704;52.006;4.374;2023-03-20T04:06:48;6.80;1.00
17178;DHT22;8704;52.006;4.374;2023-03-20T04:09:16;6.90;1.00
17178;DHT22;8704;52.006;4.374;2023-03-20T04:11:49;7.80;1.00
17178;DHT22;8704;52.006;4.374;2023-03-20T04:14:18;6.80;1.00
17178;DHT22;8704;52.006;4.374;2023-03-20T04:16:46;7.40;1.00
17178;DHT22;8704;52.006;4.374;2023-03-20T04:19:14;6.80;1.00
17178;DHT22;8704;52.006;4.374;2023-03-20T04:21:42;6.80;1.00
17178;DHT22;8704;52.006;4.374;2023-03-20T04:24:11;6.80;1.00
17178;DHT22;8704;52.006;4.374;2023-03-20T04:26:39;6.80;1.00
17178;DHT22;8704;52.006;4.374;2023-03-20T04:29:09;6.80;1.00
17178;DHT22;8704;52.006;4.374;2023-03-20T04:31:37;6.80;1.00
17178;DHT22;8704;52.006;4.374;2023-03-20T04:34:05;6.80;1.00
17178;DHT22;8704;52.006;4.374;2023-03-20T04:36:33;7.40;1.00
17178;DHT22;8704;52.006;4.374;2023-03-20T04:39:01;6.80;1.00
17178;DHT22;8704;52.006;4.374;2023-03-20T04:41:29;6.80;1.00
17178;DHT22;8704;52.006;4.374;2023-03-20T04:43:57;6.80;1.00
17178;DHT22;8704;52.006;4.374;2023-03-20T04:46:27;6.80;1.00
17178;DHT22;8704;52.006;4.374;2023-03-20T04:48:55;6.80;1.00
17178;DHT22;8704;52.006;4.374;2023-03-20T04:51:23;6.80;1.00
17178;DHT22;8704;52.006;4.374;2023-03-20T04:53:51;6.90;1.00
17178;DHT22;8704;52.006;4.374;2023-03-20T04:56:19;6.80;1.00
17178;DHT22;8704;52.006;4.374;2023-03-20T04:58:47;6.90;1.00
17178;DHT22;8704;52.006;4.374;2023-03-20T05:01:15;6.90;1.00
17178;DHT22;8704;52.006;4.374;2023-03-20T05:03:44;6.90;1.00
17178;DHT22;8704;52.006;4.374;2023-03-20T05:06:13;7.80;1.00
17178;DHT22;8704;52.006;4.374;2023-03-20T05:08:41;7.20;1.00
17178;DHT22;8704;52.006;4.374;2023-03-20T05:11:09;6.90;1.00
17178;DHT22;8704;52.006;4.374;2023-03-20T05:13:37;6.90;1.00
17178;DHT22;8704;52.006;4.374;2023-03-20T05:16:06;7.40;1.00
17178;DHT22;8704;52.006;4.374;2023-03-20T05:18:35;6.90;1.00
17178;DHT22;8704;52.006;4.374;2023-03-20T05:21:05;6.90;1.70
17178;DHT22;8704;52.006;4.374;2023-03-20T05:23:33;6.90;2.80
17178;DHT22;8704;52.006;4.374;2023-03-20T05:26:02;6.90;2.10
17178;DHT22;8704;52.006;4.374;2023-03-20T05:28:30;6.90;3.80
17178;DHT22;8704;52.006;4.374;2023-03-20T05:30:58;6.90;1.00
17178;DHT22;8704;52.006;4.374;2023-03-20T05:33:27;6.90;1.00
17178;DHT22;8704;52.006;4.374;2023-03-20T05:35:55;7.10;1.00
17178;DHT22;8704;52.006;4.374;2023-03-20T05:38:25;6.90;1.00
17178;DHT22;8704;52.006;4.374;2023-03-20T05:40:56;8.00;1.00
17178;DHT22;8704;52.006;4.374;2023-03-20T05:43:26;7.30;1.00
17178;DHT22;8704;52.006;4.374;2023-03-20T05:45:54;6.90;1.00
17178;DHT22;8704;52.006;4.374;2023-03-20T05:48:23;6.90;1.00
17178;DHT22;8704;52.006;4.374;2023-03-20T05:50:51;6.90;1.00
17178;DHT22;8704;52.006;4.374;2023-03-20T05:53:19;6.90;1.00
17178;DHT22;8704;52.006;4.374;2023-03-20T05:55:49;7.40;1.00
17178;DHT22;8704;52.006;4.374;2023-03-20T05:58:17;6.90;1.00
17178;DHT22;8704;52.006;4.374;2023-03-20T06:00:45;6.90;1.00
17178;DHT22;8704;52.006;4.374;2023-03-20T06:03:13;6.90;1.00
17178;DHT22;8704;52.006;4.374;2023-03-20T06:05:42;6.90;1.00
17178;DHT22;8704;52.006;4.374;2023-03-20T06:08:11;6.90;1.00
17178;DHT22;8704;52.006;4.374;2023-03-20T06:10:39;7.00;1.00
17178;DHT22;8704;52.006;4.374;2023-03-20T06:13:08;7.00;1.00
17178;DHT22;8704;52.006;4.374;2023-03-20T06:15:36;7.00;1.00
17178;DHT22;8704;52.006;4.374;2023-03-20T06:18:05;6.90;1.00
17178;DHT22;8704;52.006;4.374;2023-03-20T06:20:33;7.00;1.00
17178;DHT22;8704;52.006;4.374;2023-03-20T06:23:01;7.00;1.00
17178;DHT22;8704;52.006;4.374;2023-03-20T06:25:29;7.00;1.00
17178;DHT22;8704;52.006;4.374;2023-03-20T06:27:58;7.00;1.00
17178;DHT22;8704;52.006;4.374;2023-03-20T06:30:27;7.00;1.00
17178;DHT22;8704;52.006;4.374;2023-03-20T06:32:55;7.00;1.00
17178;DHT22;8704;52.006;4.374;2023-03-20T06:35:23;7.00;1.00
17178;DHT22;8704;52.006;4.374;2023-03-20T06:37:56;7.20;1.00
17178;DHT22;8704;52.006;4.374;2023-03-20T06:40:25;7.10;1.00
17178;DHT22;8704;52.006;4.374;2023-03-20T06:42:54;7.10;1.00
17178;DHT22;8704;52.006;4.374;2023-03-20T06:45:22;7.10;1.00
17178;DHT22;8704;52.006;4.374;2023-03-20T06:47:51;7.10;1.00
17178;DHT22;8704;52.006;4.374;2023-03-20T06:50:19;7.10;1.00
17178;DHT22;8704;52.006;4.374;2023-03-20T06:52:47;7.10;1.00
17178;DHT22;8704;52.006;4.374;2023-03-20T06:55:16;7.10;1.00
17178;DHT22;8704;52.006;4.374;2023-03-20T06:57:44;7.10;1.00
17178;DHT22;8704;52.006;4.374;2023-03-20T07:00:13;8.30;1.00
17178;DHT22;8704;52.006;4.374;2023-03-20T07:02:41;7.20;1.00
17178;DHT22;8704;52.006;4.374;2023-03-20T07:05:10;7.20;1.00
17178;DHT22;8704;52.006;4.374;2023-03-20T07:07:38;7.20;1.00
17178;DHT22;8704;52.006;4.374;2023-03-20T07:10:08;7.20;1.00
17178;DHT22;8704;52.006;4.374;2023-03-20T07:12:38;6.30;1.00
17178;DHT22;8704;52.006;4.374;2023-03-20T07:15:06;7.30;1.00
17178;DHT22;8704;52.006;4.374;2023-03-20T07:17:35;7.30;1.00
17178;DHT22;8704;52.006;4.374;2023-03-20T07:20:04;7.30;1.00
17178;DHT22;8704;52.006;4.374;2023-03-20T07:22:33;7.30;1.00
17178;DHT22;8704;52.006;4.374;2023-03-20T07:25:01;7.70;1.00
17178;DHT22;8704;52.006;4.374;2023-03-20T07:27:30;7.50;1.00
17178;DHT22;8704;52.006;4.374;2023-03-20T07:29:58;7.40;1.00
17178;DHT22;8704;52.006;4.374;2023-03-20T07:32:26;7.40;1.00
17178;DHT22;8704;52.006;4.374;2023-03-20T07:34:54;7.50;1.00
17178;DHT22;8704;52.006;4.374;2023-03-20T07:37:23;7.50;1.00
17178;DHT22;8704;52.006;4.374;2023-03-20T07:39:52;7.70;1.00
17178;DHT22;8704;52.006;4.374;2023-03-20T07:42:21;7.50;1.00
17178;DHT22;8704;52.006;4.374;2023-03-20T07:44:49;7.60;1.00
17178;DHT22;8704;52.006;4.374;2023-03-20T07:47:17;7.70;1.00
17178;DHT22;8704;52.006;4.374;2023-03-20T07:49:45;7.50;1.00
17178;DHT22;8704;52.006;4.374;2023-03-20T07:52:13;7.60;4.10
17178;DHT22;8704;52.006;4.374;2023-03-20T07:54:42;7.50;1.00
17178;DHT22;8704;52.006;4.374;2023-03-20T07:57:12;7.50;1.00
17178;DHT22;8704;52.006;4.374;2023-03-20T07:59:40;7.70;23.50
17178;DHT22;8704;52.006;4.374;2023-03-20T08:02:13;7.50;56.10
17178;DHT22;8704;52.006;4.374;2023-03-20T08:04:41;7.60;75.80
17178;DHT22;8704;52.006;4.374;2023-03-20T08:07:10;7.60;99.90
17178;DHT22;8704;52.006;4.374;2023-03-20T08:09:38;7.60;99.90
17178;DHT22;8704;52.006;4.374;2023-03-20T08:12:07;7.60;99.90
17178;DHT22;8704;52.006;4.374;2023-03-20T08:14:36;7.60;99.90
17178;DHT22;8704;52.006;4.374;2023-03-20T08:17:05;7.60;99.90
17178;DHT22;8704;52.006;4.374;2023-03-20T08:19:40;7.60;99.90
17178;DHT22;8704;52.006;4.374;2023-03-20T08:22:08;7.60;99.90
17178;DHT22;8704;52.006;4.374;2023-03-20T08:24:37;7.90;99.90
17178;DHT22;8704;52.006;4.374;2023-03-20T08:27:05;7.70;99.90
17178;DHT22;8704;52.006;4.374;2023-03-20T08:29:33;7.70;99.90
17178;DHT22;8704;52.006;4.374;2023-03-20T08:32:03;7.70;99.90
17178;DHT22;8704;52.006;4.374;2023-03-20T08:34:31;7.70;99.90
17178;DHT22;8704;52.006;4.374;2023-03-20T08:37:02;7.80;99.90
17178;DHT22;8704;52.006;4.374;2023-03-20T08:39:30;7.80;99.90
17178;DHT22;8704;52.006;4.374;2023-03-20T08:41:59;8.30;99.90
17178;DHT22;8704;52.006;4.374;2023-03-20T08:44:27;8.50;99.90
17178;DHT22;8704;52.006;4.374;2023-03-20T08:46:55;7.90;99.90
17178;DHT22;8704;52.006;4.374;2023-03-20T08:49:24;7.90;99.90
17178;DHT22;8704;52.006;4.374;2023-03-20T08:51:53;7.80;99.90
17178;DHT22;8704;52.006;4.374;2023-03-20T08:54:22;7.90;99.90
17178;DHT22;8704;52.006;4.374;2023-03-20T08:56:50;8.40;99.90
17178;DHT22;8704;52.006;4.374;2023-03-20T08:59:19;8.00;99.90
17178;DHT22;8704;52.006;4.374;2023-03-20T09:01:47;8.10;99.90
17178;DHT22;8704;52.006;4.374;2023-03-20T09:04:16;8.10;99.90
17178;DHT22;8704;52.006;4.374;2023-03-20T09:06:46;8.10;99.90
17178;DHT22;8704;52.006;4.374;2023-03-20T09:09:14;8.20;99.90
17178;DHT22;8704;52.006;4.374;2023-03-20T09:11:45;8.10;99.90
17178;DHT22;8704;52.006;4.374;2023-03-20T09:14:13;8.10;99.90
17178;DHT22;8704;52.006;4.374;2023-03-20T09:16:41;8.20;99.90
17178;DHT22;8704;52.006;4.374;2023-03-20T09:19:10;8.20;99.90
17178;DHT22;8704;52.006;4.374;2023-03-20T09:21:38;9.30;99.90
17178;DHT22;8704;52.006;4.374;2023-03-20T09:24:08;8.30;99.90
17178;DHT22;8704;52.006;4.374;2023-03-20T09:26:37;8.30;99.90
17178;DHT22;8704;52.006;4.374;2023-03-20T09:29:05;8.70;99.90
17178;DHT22;8704;52.006;4.374;2023-03-20T09:31:33;8.40;99.90
17178;DHT22;8704;52.006;4.374;2023-03-20T09:34:01;8.40;99.90
17178;DHT22;8704;52.006;4.374;2023-03-20T09:36:29;8.60;99.90
17178;DHT22;8704;52.006;4.374;2023-03-20T09:38:58;8.90;99.90
17178;DHT22;8704;52.006;4.374;2023-03-20T09:41:27;8.50;99.90
17178;DHT22;8704;52.006;4.374;2023-03-20T09:44:34;8.60;99.90
17178;DHT22;8704;52.006;4.374;2023-03-20T09:47:13;8.50;99.90
17178;DHT22;8704;52.006;4.374;2023-03-20T09:49:56;9.00;99.90
17178;DHT22;8704;52.006;4.374;2023-03-20T09:52:29;8.60;99.90
17178;DHT22;8704;52.006;4.374;2023-03-20T09:55:01;8.60;99.90
17178;DHT22;8704;52.006;4.374;2023-03-20T09:57:36;8.80;99.90
17178;DHT22;8704;52.006;4.374;2023-03-20T10:00:10;8.80;99.90
17178;DHT22;8704;52.006;4.374;2023-03-20T10:02:45;8.80;99.90
17178;DHT22;8704;52.006;4.374;2023-03-20T10:05:19;8.90;99.90
17178;DHT22;8704;52.006;4.374;2023-03-20T10:07:48;8.80;99.90
17178;DHT22;8704;52.006;4.374;2023-03-20T10:10:17;9.90;99.90
17178;DHT22;8704;52.006;4.374;2023-03-20T10:12:53;9.10;99.90
17178;DHT22;8704;52.006;4.374;2023-03-20T10:15:37;8.90;99.90
17178;DHT22;8704;52.006;4.374;2023-03-20T10:18:17;8.80;99.90
17178;DHT22;8704;52.006;4.374;2023-03-20T10:20:53;8.80;99.90
17178;DHT22;8704;52.006;4.374;2023-03-20T10:23:27;8.90;99.90
17178;DHT22;8704;52.006;4.374;2023-03-20T10:26:02;9.10;99.90
17178;DHT22;8704;52.006;4.374;2023-03-20T10:28:37;9.00;99.90
17178;DHT22;8704;52.006;4.374;2023-03-20T10:31:22;9.30;99.90
17178;DHT22;8704;52.006;4.374;2023-03-20T10:34:02;9.00;99.90
17178;DHT22;8704;52.006;4.374;2023-03-20T10:36:41;9.10;99.90
17178;DHT22;8704;52.006;4.374;2023-03-20T10:39:17;8.90;99.90
17178;DHT22;8704;52.006;4.374;2023-03-20T10:41:52;9.30;99.90
17178;DHT22;8704;52.006;4.374;2023-03-20T10:44:28;9.00;99.90
17178;DHT22;8704;52.006;4.374;2023-03-20T10:47:00;9.10;99.90
17178;DHT22;8704;52.006;4.374;2023-03-20T10:49:33;9.30;99.90
17178;DHT22;8704;52.006;4.374;2023-03-20T10:52:06;9.10;99.90
17178;DHT22;8704;52.006;4.374;2023-03-20T10:54:40;9.20;99.90
17178;DHT22;8704;52.006;4.374;2023-03-20T10:57:14;9.20;99.90
17178;DHT22;8704;52.006;4.374;2023-03-20T10:59:47;9.20;99.90
17178;DHT22;8704;52.006;4.374;2023-03-20T11:02:18;9.20;99.90
17178;DHT22;8704;52.006;4.374;2023-03-20T11:04:47;9.30;99.90
17178;DHT22;8704;52.006;4.374;2023-03-20T11:07:21;9.40;99.90
17178;DHT22;8704;52.006;4.374;2023-03-20T11:10:09;9.80;99.90
17178;DHT22;8704;52.006;4.374;2023-03-20T11:12:39;9.30;99.90
17178;DHT22;8704;52.006;4.374;2023-03-20T11:15:25;9.70;99.90
17178;DHT22;8704;52.006;4.374;2023-03-20T11:17:56;9.40;99.90
17178;DHT22;8704;52.006;4.374;2023-03-20T11:20:26;9.30;99.90
17178;DHT22;8704;52.006;4.374;2023-03-20T11:23:00;9.40;99.90
17178;DHT22;8704;52.006;4.374;2023-03-20T11:25:31;9.80;99.90
17178;DHT22;8704;52.006;4.374;2023-03-20T11:28:17;9.40;99.90
17178;DHT22;8704;52.006;4.374;2023-03-20T11:30:49;9.40;99.90
17178;DHT22;8704;52.006;4.374;2023-03-20T11:33:32;9.40;99.90
17178;DHT22;8704;52.006;4.374;2023-03-20T11:36:00;9.50;99.90
17178;DHT22;8704;52.006;4.374;2023-03-20T11:38:30;9.40;99.90
17178;DHT22;8704;52.006;4.374;2023-03-20T11:40:58;9.50;99.90
17178;DHT22;8704;52.006;4.374;2023-03-20T11:43:36;9.40;99.90
17178;DHT22;8704;52.006;4.374;2023-03-20T11:46:09;10.10;99.90
17178;DHT22;8704;52.006;4.374;2023-03-20T11:48:40;9.30;99.90
17178;DHT22;8704;52.006;4.374;2023-03-20T11:51:11;10.10;99.90
17178;DHT22;8704;52.006;4.374;2023-03-20T11:53:41;9.80;99.90
17178;DHT22;8704;52.006;4.374;2023-03-20T11:56:23;9.40;99.90
17178;DHT22;8704;52.006;4.374;2023-03-20T11:58:55;9.50;99.90
17178;DHT22;8704;52.006;4.374;2023-03-20T12:01:27;9.50;99.90
17178;DHT22;8704;52.006;4.374;2023-03-20T12:04:01;9.50;1.00
17178;DHT22;8704;52.006;4.374;2023-03-20T12:06:41;9.50;99.90
17178;DHT22;8704;52.006;4.374;2023-03-20T12:09:19;9.40;99.90
17178;DHT22;8704;52.006;4.374;2023-03-20T12:11:51;9.50;1.00
17178;DHT22;8704;52.006;4.374;2023-03-20T12:14:28;9.90;99.90
17178;DHT22;8704;52.006;4.374;2023-03-20T12:17:11;9.40;99.90
17178;DHT22;8704;52.006;4.374;2023-03-20T12:19:43;9.40;99.90
17178;DHT22;8704;52.006;4.374;2023-03-20T12:22:18;9.40;1.00
17178;DHT22;8704;52.006;4.374;2023-03-20T12:24:52;9.50;1.00
17178;DHT22;8704;52.006;4.374;2023-03-20T12:27:26;9.40;1.00
17178;DHT22;8704;52.006;4.374;2023-03-20T12:29:59;9.40;1.00
17178;DHT22;8704;52.006;4.374;2023-03-20T12:32:35;9.50;1.00
17178;DHT22;8704;52.006;4.374;2023-03-20T12:35:10;9.40;1.00
17178;DHT22;8704;52.006;4.374;2023-03-20T12:37:42;9.50;1.00
17178;DHT22;8704;52.006;4.374;2023-03-20T12:40:15;9.60;1.00
17178;DHT22;8704;52.006;4.374;2023-03-20T12:42:56;9.50;1.00
17178;DHT22;8704;52.006;4.374;2023-03-20T12:45:32;9.40;1.00
17178;DHT22;8704;52.006;4.374;2023-03-20T12:48:22;9.60;1.00
17178;DHT22;8704;52.006;4.374;2023-03-20T12:51:02;9.40;1.00
17178;DHT22;8704;52.006;4.374;2023-03-20T12:53:41;9.40;1.00
17178;DHT22;8704;52.006;4.374;2023-03-20T12:56:19;10.20;1.00
17178;DHT22;8704;52.006;4.374;2023-03-20T12:58:55;9.90;1.00
17178;DHT22;8704;52.006;4.374;2023-03-20T13:01:29;9.40;1.00
17178;DHT22;8704;52.006;4.374;2023-03-20T13:07:01;9.50;1.00
17178;DHT22;8704;52.006;4.374;2023-03-20T13:09:46;9.50;1.00
17178;DHT22;8704;52.006;4.374;2023-03-20T13:12:25;9.50;1.00
17178;DHT22;8704;52.006;4.374;2023-03-20T13:15:02;9.60;1.00
17178;DHT22;8704;52.006;4.374;2023-03-20T13:17:45;9.50;1.00
17178;DHT22;8704;52.006;4.374;2023-03-20T13:20:21;9.50;1.00
17178;DHT22;8704;52.006;4.374;2023-03-20T13:23:06;9.50;1.00
17178;DHT22;8704;52.006;4.374;2023-03-20T13:28:43;9.50;1.00
17178;DHT22;8704;52.006;4.374;2023-03-20T13:31:23;9.50;1.00
17178;DHT22;8704;52.006;4.374;2023-03-20T13:33:59;9.50;1.00
17178;DHT22;8704;52.006;4.374;2023-03-20T13:36:40;9.40;1.00
17178;DHT22;8704;52.006;4.374;2023-03-20T13:39:13;9.50;1.00
17178;DHT22;8704;52.006;4.374;2023-03-20T13:41:44;9.50;1.00
17178;DHT22;8704;52.006;4.374;2023-03-20T13:44:15;9.50;1.00
17178;DHT22;8704;52.006;4.374;2023-03-20T13:46:49;9.50;1.00
17178;DHT22;8704;52.006;4.374;2023-03-20T13:49:22;9.70;1.00
17178;DHT22;8704;52.006;4.374;2023-03-20T13:51:59;9.50;1.00
17178;DHT22;8704;52.006;4.374;2023-03-20T13:54:40;9.50;1.00
17178;DHT22;8704;52.006;4.374;2023-03-20T13:57:24;9.50;1.00
17178;DHT22;8704;52.006;4.374;2023-03-20T14:00:00;9.50;1.00
17178;DHT22;8704;52.006;4.374;2023-03-20T14:02:44;9.60;1.00
17178;DHT22;8704;52.006;4.374;2023-03-20T14:05:19;9.60;1.00
17178;DHT22;8704;52.006;4.374;2023-03-20T14:07:54;9.50;1.00
17178;DHT22;8704;52.006;4.374;2023-03-20T14:10:36;9.50;1.00
17178;DHT22;8704;52.006;4.374;2023-03-20T14:13:11;9.50;1.00
17178;DHT22;8704;52.006;4.374;2023-03-20T14:15:46;9.60;1.00
17178;DHT22;8704;52.006;4.374;2023-03-20T14:18:17;9.60;1.00
17178;DHT22;8704;52.006;4.374;2023-03-20T14:20:54;9.60;1.00
17178;DHT22;8704;52.006;4.374;2023-03-20T14:23:32;9.70;9.40
17178;DHT22;8704;52.006;4.374;2023-03-20T14:26:05;9.60;27.70
17178;DHT22;8704;52.006;4.374;2023-03-20T14:28:44;9.60;18.10
17178;DHT22;8704;52.006;4.374;2023-03-20T14:31:22;9.60;22.60
17178;DHT22;8704;52.006;4.374;2023-03-20T14:33:57;9.60;30.80
17178;DHT22;8704;52.006;4.374;2023-03-20T14:36:40;9.60;56.90
17178;DHT22;8704;52.006;4.374;2023-03-20T14:39:18;9.70;74.30
17178;DHT22;8704;52.006;4.374;2023-03-20T14:41:56;9.60;84.80
17178;DHT22;8704;52.006;4.374;2023-03-20T14:44:38;9.80;94.90
17178;DHT22;8704;52.006;4.374;2023-03-20T14:47:21;9.90;99.40
17178;DHT22;8704;52.006;4.374;2023-03-20T14:49:54;9.70;99.90
17178;DHT22;8704;52.006;4.374;2023-03-20T14:52:44;9.60;99.90
17178;DHT22;8704;52.006;4.374;2023-03-20T14:55:33;9.60;99.90
17178;DHT22;8704;52.006;4.374;2023-03-20T14:58:50;9.70;99.90
17178;DHT22;8704;52.006;4.374;2023-03-20T15:01:26;9.70;99.90
17178;DHT22;8704;52.006;4.374;2023-03-20T15:03:57;9.70;99.90
17178;DHT22;8704;52.006;4.374;2023-03-20T15:06:28;9.70;99.90
17178;DHT22;8704;52.006;4.374;2023-03-20T15:08:58;9.80;99.90
17178;DHT22;8704;52.006;4.374;2023-03-20T15:11:28;9.70;99.90
17178;DHT22;8704;52.006;4.374;2023-03-20T15:13:58;9.70;99.90
17178;DHT22;8704;52.006;4.374;2023-03-20T15:16:28;9.90;99.90
17178;DHT22;8704;52.006;4.374;2023-03-20T15:18:57;9.80;99.90
17178;DHT22;8704;52.006;4.374;2023-03-20T15:21:32;9.80;99.90
17178;DHT22;8704;52.006;4.374;2023-03-20T15:24:01;9.90;99.90
17178;DHT22;8704;52.006;4.374;2023-03-20T15:26:32;9.80;99.90
17178;DHT22;8704;52.006;4.374;2023-03-20T15:29:04;9.70;99.90
17178;DHT22;8704;52.006;4.374;2023-03-20T15:31:34;10.00;99.90
17178;DHT22;8704;52.006;4.374;2023-03-20T15:34:07;9.60;99.90
17178;DHT22;8704;52.006;4.374;2023-03-20T15:36:38;9.80;99.90
17178;DHT22;8704;52.006;4.374;2023-03-20T15:39:13;9.80;99.90
17178;DHT22;8704;52.006;4.374;2023-03-20T15:41:45;9.90;99.90
17178;DHT22;8704;52.006;4.374;2023-03-20T15:44:19;9.80;99.90
17178;DHT22;8704;52.006;4.374;2023-03-20T15:46:57;9.80;99.90
17178;DHT22;8704;52.006;4.374;2023-03-20T15:49:27;9.80;99.90
17178;DHT22;8704;52.006;4.374;2023-03-20T15:51:58;9.80;99.90
17178;DHT22;8704;52.006;4.374;2023-03-20T15:54:27;9.80;99.90
17178;DHT22;8704;52.006;4.374;2023-03-20T15:56:57;9.80;99.90
17178;DHT22;8704;52.006;4.374;2023-03-20T15:59:29;9.80;99.90
17178;DHT22;8704;52.006;4.374;2023-03-20T16:01:59;9.80;99.90
17178;DHT22;8704;52.006;4.374;2023-03-20T16:04:28;9.80;99.90
17178;DHT22;8704;52.006;4.374;2023-03-20T16:06:58;9.80;99.90
17178;DHT22;8704;52.006;4.374;2023-03-20T16:09:27;9.80;99.90
17178;DHT22;8704;52.006;4.374;2023-03-20T16:11:57;9.80;99.90
17178;DHT22;8704;52.006;4.374;2023-03-20T16:14:28;10.10;99.90
17178;DHT22;8704;52.006;4.374;2023-03-20T16:16:59;9.80;99.90
17178;DHT22;8704;52.006;4.374;2023-03-20T16:19:28;9.90;99.90
17178;DHT22;8704;52.006;4.374;2023-03-20T16:21:58;9.90;99.90
17178;DHT22;8704;52.006;4.374;2023-03-20T16:24:28;9.90;99.90
17178;DHT22;8704;52.006;4.374;2023-03-20T16:26:58;10.00;99.90
17178;DHT22;8704;52.006;4.374;2023-03-20T16:29:27;9.90;99.90
17178;DHT22;8704;52.006;4.374;2023-03-20T16:31:58;9.70;99.90
17178;DHT22;8704;52.006;4.374;2023-03-20T16:34:32;9.70;99.90
17178;DHT22;8704;52.006;4.374;2023-03-20T16:37:06;9.90;99.90
17178;DHT22;8704;52.006;4.374;2023-03-20T16:39:34;9.80;99.90
17178;DHT22;8704;52.006;4.374;2023-03-20T16:42:28;9.70;99.90
17178;DHT22;8704;52.006;4.374;2023-03-20T16:44:57;9.70;99.90
17178;DHT22;8704;52.006;4.374;2023-03-20T16:47:33;9.70;99.90
17178;DHT22;8704;52.006;4.374;2023-03-20T16:50:16;9.90;99.90
17178;DHT22;8704;52.006;4.374;2023-03-20T16:52:48;9.70;99.90
17178;DHT22;8704;52.006;4.374;2023-03-20T16:55:22;9.60;99.90